createdAt,value
2022-12-28T00:00:02.237Z,90.24
2022-12-28T00:05:01.440Z,90.82
2022-12-28T00:10:01.820Z,90.82
2022-12-28T00:15:02.255Z,90.47
2022-12-28T00:20:01.383Z,90.39
2022-12-28T00:25:01.725Z,90.9
2022-12-28T00:30:02.193Z,90.95
2022-12-28T00:35:02.205Z,91.07
2022-12-28T00:40:01.417Z,91.32
2022-12-28T00:45:01.681Z,91.35
2022-12-28T00:50:02.039Z,91.8
2022-12-28T00:55:01.669Z,91.9
2022-12-28T01:00:02.006Z,92
2022-12-28T01:05:02.195Z,91.55
2022-12-28T01:10:01.373Z,91.35
2022-12-28T01:15:01.825Z,91.58
2022-12-28T01:20:02.030Z,91.18
2022-12-28T01:25:02.168Z,91.64
2022-12-28T01:30:01.444Z,91.45
2022-12-28T01:35:02.104Z,91.63
2022-12-28T01:40:01.838Z,91.67
2022-12-28T01:45:01.533Z,91.97
2022-12-28T01:50:02.195Z,92.16
2022-12-28T01:55:01.503Z,92.4
2022-12-28T02:00:01.943Z,92.29
2022-12-28T02:05:01.468Z,92.42
2022-12-28T02:10:44.612Z,92.61
2022-12-28T02:15:01.733Z,92.48
2022-12-28T02:20:02.225Z,92.81
2022-12-28T02:25:12.251Z,92.65
2022-12-28T02:30:01.607Z,92.47
2022-12-28T02:35:01.603Z,92.58
2022-12-28T02:40:02.123Z,92.46
2022-12-28T02:45:02.230Z,92.5
2022-12-28T02:50:01.322Z,92.64
2022-12-28T02:55:01.544Z,91.93
2022-12-28T03:00:01.991Z,92.09
2022-12-28T03:05:01.464Z,92.16
2022-12-28T03:10:02.239Z,92.06
2022-12-28T03:15:01.534Z,92.33
2022-12-28T03:20:01.400Z,92.5
2022-12-28T03:25:02.211Z,92.65
2022-12-28T03:30:01.614Z,92.53
2022-12-28T03:35:02.304Z,92.76
2022-12-28T03:40:01.776Z,93.12
2022-12-28T03:45:02.287Z,93.29
2022-12-28T03:50:01.818Z,93.54
2022-12-28T03:55:01.357Z,93.83
2022-12-28T04:00:01.738Z,93.86
2022-12-28T04:05:01.879Z,93.78
2022-12-28T04:10:01.435Z,93.82
2022-12-28T04:15:02.155Z,93.53
2022-12-28T04:20:02.259Z,93.29
2022-12-28T04:25:01.357Z,93.48
2022-12-28T04:30:01.809Z,93.54
2022-12-28T04:35:02.103Z,93.35
2022-12-28T04:40:01.530Z,93.65
2022-12-28T04:45:01.903Z,93.43
2022-12-28T04:50:02.152Z,93.37
2022-12-28T04:55:02.280Z,93.32
2022-12-28T05:00:01.387Z,93.24
2022-12-28T05:05:02.108Z,93.38
2022-12-28T05:10:01.357Z,93.41
2022-12-28T05:15:01.910Z,93.55
2022-12-28T05:20:01.522Z,93.74
2022-12-28T05:25:01.500Z,93.72
2022-12-28T05:30:01.886Z,93.6
2022-12-28T05:35:02.077Z,93.67
2022-12-28T05:40:01.634Z,93.71
2022-12-28T05:45:01.819Z,93.77
2022-12-28T05:50:01.547Z,93.48
2022-12-28T05:55:01.965Z,93.29
2022-12-28T06:00:02.177Z,93.02
2022-12-28T06:05:01.375Z,93.03
2022-12-28T06:10:01.943Z,93.17
2022-12-28T06:15:01.868Z,93.05
2022-12-28T06:20:01.271Z,93.03
2022-12-28T06:25:01.668Z,92.91
2022-12-28T06:30:01.866Z,92.27
2022-12-28T06:35:01.378Z,92.55
2022-12-28T06:40:01.692Z,92.1
2022-12-28T06:45:01.953Z,91.61
2022-12-28T06:50:02.186Z,91.71
2022-12-28T06:55:01.455Z,91.49
2022-12-28T07:00:02.102Z,91.25
2022-12-28T07:05:02.271Z,90.49
2022-12-28T07:10:01.703Z,90.45
2022-12-28T07:15:01.311Z,90.65
2022-12-28T07:20:02.074Z,90.51
2022-12-28T07:25:01.647Z,90.53
2022-12-28T07:30:01.806Z,90.73
2022-12-28T07:35:02.204Z,90.53
2022-12-28T07:40:01.392Z,90.69
2022-12-28T07:45:01.935Z,91
2022-12-28T07:50:02.056Z,91
2022-12-28T07:55:01.269Z,90.28
2022-12-28T08:00:01.650Z,90.49
2022-12-28T08:05:01.479Z,90.69
2022-12-28T08:10:01.954Z,90.65
2022-12-28T08:15:02.086Z,90.27
2022-12-28T08:20:01.279Z,90.74
2022-12-28T08:25:01.639Z,90.53
2022-12-28T08:30:02.041Z,90.03
2022-12-28T08:35:01.447Z,90.31
2022-12-28T08:40:01.269Z,89.84
2022-12-28T08:45:02.068Z,90.04
2022-12-28T08:50:02.233Z,90.18
2022-12-28T08:55:01.904Z,90.05
2022-12-28T09:00:01.623Z,90
2022-12-28T09:05:02.243Z,90.41
2022-12-28T09:10:02.243Z,90.44
2022-12-28T09:15:01.440Z,90.78
2022-12-28T09:20:01.791Z,90.51
2022-12-28T09:25:02.095Z,90.28
2022-12-28T09:30:02.163Z,90.15
2022-12-28T09:35:01.529Z,89.96
2022-12-28T09:40:02.184Z,90.01
2022-12-28T09:45:01.471Z,89.83
2022-12-28T09:50:01.786Z,89.52
2022-12-28T09:55:02.033Z,89.78
2022-12-28T10:00:02.089Z,90.04
2022-12-28T10:05:01.439Z,89.63
2022-12-28T10:10:02.022Z,89.65
2022-12-28T10:15:01.417Z,89.33
2022-12-28T10:20:02.277Z,89.26
2022-12-28T10:25:01.332Z,89.26
2022-12-28T10:30:01.729Z,88.87
2022-12-28T10:35:01.593Z,88.87
2022-12-28T10:40:01.947Z,89.05
2022-12-28T10:45:02.224Z,88.79
2022-12-28T10:50:37.869Z,88.6
2022-12-28T10:55:07.557Z,88.49
2022-12-28T11:00:01.553Z,87.85
2022-12-28T11:05:02.079Z,88.2
2022-12-28T11:10:01.625Z,88.14
2022-12-28T11:15:02.086Z,87.83
2022-12-28T11:20:01.361Z,87.78
2022-12-28T11:25:01.830Z,87.01
2022-12-28T11:30:02.236Z,87.18
2022-12-28T11:35:01.506Z,85.95
2022-12-28T11:40:01.885Z,86.55
2022-12-28T11:45:02.182Z,86.24
2022-12-28T11:50:01.406Z,86.49
2022-12-28T11:55:01.523Z,86.24
2022-12-28T12:00:01.770Z,85.84
2022-12-28T12:05:01.417Z,85.97
2022-12-28T12:10:02.146Z,86.2
2022-12-28T12:15:02.136Z,85.69
2022-12-28T12:20:01.284Z,85.65
2022-12-28T12:25:01.605Z,85.18
2022-12-28T12:30:02.122Z,85.11
2022-12-28T12:35:01.478Z,85.54
2022-12-28T12:40:01.916Z,85.01
2022-12-28T12:45:02.198Z,84.7
2022-12-28T12:50:01.454Z,84.37
2022-12-28T12:55:01.762Z,84.3
2022-12-28T13:00:01.891Z,83.4
2022-12-28T13:05:02.085Z,82.79
2022-12-28T13:10:01.535Z,82.87
2022-12-28T13:15:04.897Z,82.15
2022-12-28T13:20:02.220Z,83.59
2022-12-28T13:25:01.352Z,83.69
2022-12-28T13:30:01.757Z,83.82
2022-12-28T13:35:01.456Z,83.73
2022-12-28T13:40:01.729Z,84.56
2022-12-28T13:45:01.936Z,84.2
2022-12-28T13:50:01.661Z,84.47
2022-12-28T13:55:02.105Z,83.52
2022-12-28T14:00:01.386Z,83.76
2022-12-28T14:05:01.738Z,84.15
2022-12-28T14:10:01.283Z,83.67
2022-12-28T14:15:01.734Z,83.21
2022-12-28T14:20:01.375Z,83.15
2022-12-28T14:25:01.807Z,83.19
2022-12-28T14:30:01.643Z,83.47
2022-12-28T14:35:02.060Z,83.81
2022-12-28T14:40:01.743Z,83.69
2022-12-28T14:45:01.963Z,84.05
2022-12-28T14:50:01.562Z,83.98
2022-12-28T14:55:01.416Z,83.86
2022-12-28T15:00:02.011Z,83.7
2022-12-28T15:05:01.717Z,84.55
2022-12-28T15:10:01.958Z,84.31
2022-12-28T15:15:01.637Z,83.87
2022-12-28T15:20:01.455Z,84.07
2022-12-28T15:25:01.865Z,83.73
2022-12-28T15:30:06.398Z,84.12
2022-12-28T15:35:01.393Z,84.12
2022-12-28T15:40:02.078Z,83.61
2022-12-28T15:45:02.210Z,83.24
2022-12-28T15:50:02.267Z,84.05
2022-12-28T15:55:01.359Z,84.05
2022-12-28T16:00:01.841Z,83.39
2022-12-28T16:05:02.367Z,82.97
2022-12-28T16:10:02.294Z,82.62
2022-12-28T16:15:01.807Z,82.6
2022-12-28T16:20:01.977Z,82.33
2022-12-28T16:25:02.189Z,82.25
2022-12-28T16:30:01.442Z,82.18
2022-12-28T16:35:02.037Z,82.47
2022-12-28T16:40:02.194Z,81.9
2022-12-28T16:45:01.321Z,82.9
2022-12-28T16:50:01.500Z,81.97
2022-12-28T16:55:02.051Z,82.95
2022-12-28T17:00:01.426Z,82.37
2022-12-28T17:05:01.364Z,82.73
2022-12-28T17:10:01.595Z,82.95
2022-12-28T17:15:05.311Z,83.24
2022-12-28T17:20:01.730Z,83.29
2022-12-28T17:25:01.955Z,83.28
2022-12-28T17:30:01.419Z,83.4
2022-12-28T17:35:01.864Z,83.65
2022-12-28T17:40:01.267Z,83.73
2022-12-28T17:45:06.079Z,83.64
2022-12-28T17:50:01.988Z,83.63
2022-12-28T17:55:01.361Z,83.89
2022-12-28T18:00:01.428Z,84.11
2022-12-28T18:05:01.803Z,84.59
2022-12-28T18:10:02.121Z,84.61
2022-12-28T18:15:02.023Z,84.61
2022-12-28T18:20:01.580Z,85.76
2022-12-28T18:25:01.724Z,85.96
2022-12-28T18:30:02.093Z,86.19
2022-12-28T18:35:02.157Z,86.61
2022-12-28T18:40:02.287Z,86.58
2022-12-28T18:45:02.281Z,87.3
2022-12-28T18:50:01.729Z,87.65
2022-12-28T18:55:01.736Z,88.31
2022-12-28T19:00:01.992Z,87.8
2022-12-28T19:05:01.355Z,88.04
2022-12-28T19:10:05.073Z,88.56
2022-12-28T19:15:01.887Z,88.81
2022-12-28T19:20:01.984Z,89.39
2022-12-28T19:25:02.087Z,88.91
2022-12-28T19:30:02.189Z,88.11
2022-12-28T19:35:01.402Z,88.05
2022-12-28T19:40:02.157Z,87.49
2022-12-28T19:45:08.031Z,86.85
2022-12-28T19:50:02.043Z,86.95
2022-12-28T19:55:02.262Z,86.91
2022-12-28T20:00:02.205Z,87.36
2022-12-28T20:05:02.119Z,87.16
2022-12-28T20:10:01.984Z,86.89
2022-12-28T20:15:02.108Z,87.11
2022-12-28T20:20:01.524Z,87.06
2022-12-28T20:25:01.640Z,87.06
2022-12-28T20:30:02.033Z,87.6
2022-12-28T20:35:01.681Z,88
2022-12-28T20:40:02.222Z,88.26
2022-12-28T20:45:02.405Z,88.57
2022-12-28T20:50:01.802Z,89.01
2022-12-28T20:55:01.625Z,89.46
2022-12-28T21:00:01.676Z,89.75
2022-12-28T21:05:01.771Z,90.04
2022-12-28T21:10:01.843Z,90.01
2022-12-28T21:15:01.871Z,90.16
2022-12-28T21:20:01.606Z,89.95
2022-12-28T21:25:02.229Z,89.64
2022-12-28T21:30:02.090Z,89.78
2022-12-28T21:35:01.680Z,90.04
2022-12-28T21:40:01.951Z,90.25
2022-12-28T21:45:01.793Z,90.68
2022-12-28T21:50:01.397Z,90.57
2022-12-28T21:55:01.819Z,90.75
2022-12-28T22:00:02.220Z,90.68
2022-12-28T22:05:03.266Z,90.86
2022-12-28T22:10:01.836Z,91.19
2022-12-28T22:15:02.171Z,91.32
2022-12-28T22:20:01.350Z,91.73
2022-12-28T22:25:01.706Z,92.13
2022-12-28T22:30:01.980Z,92.16
2022-12-28T22:35:02.189Z,92.5
2022-12-28T22:40:01.311Z,92.56
2022-12-28T22:45:01.579Z,92.65
2022-12-28T22:50:01.289Z,92.95
2022-12-28T22:55:01.653Z,92.7
2022-12-28T23:00:02.807Z,92.78
2022-12-28T23:05:02.727Z,92.9
2022-12-28T23:10:15.313Z,92.99
2022-12-28T23:15:05.583Z,93.41
2022-12-28T23:20:01.528Z,93.52
2022-12-28T23:25:01.389Z,93.42
2022-12-28T23:30:01.759Z,93.39
2022-12-28T23:35:01.534Z,93.45
2022-12-28T23:40:01.402Z,93.27
2022-12-28T23:45:01.947Z,92.92
2022-12-28T23:50:02.102Z,92.77
2022-12-28T23:55:02.025Z,92.64
